createdAt,value
2022-08-07T00:00:40.041Z,96.14
2022-08-07T00:01:43.559Z,95.57
2022-08-07T00:02:41.418Z,95.06
2022-08-07T00:03:39.185Z,94.55
2022-08-07T00:04:39.172Z,94.24
2022-08-07T00:05:38.145Z,94.65
2022-08-07T00:06:41.001Z,94.85
2022-08-07T00:07:41.202Z,94.96
2022-08-07T00:08:38.110Z,94.75
2022-08-07T00:09:39.076Z,94.65
2022-08-07T00:10:47.607Z,94.75
2022-08-07T00:11:48.049Z,95.17
2022-08-07T00:12:57.789Z,95.67
2022-08-07T00:13:40.526Z,95.98
2022-08-07T00:14:39.022Z,96.08
2022-08-07T00:15:46.627Z,96.08
2022-08-07T00:16:39.000Z,96.19
2022-08-07T00:17:37.968Z,96.39
2022-08-07T00:18:37.958Z,96.49
2022-08-07T00:20:00.581Z,96.49
2022-08-07T00:20:38.943Z,96.39
2022-08-07T00:21:55.886Z,96.08
2022-08-07T00:22:38.912Z,95.62
2022-08-07T00:23:39.511Z,94.90
2022-08-07T00:24:37.900Z,94.29
2022-08-07T00:25:41.578Z,93.98
2022-08-07T00:26:59.403Z,93.88
2022-08-07T00:27:52.644Z,93.77
2022-08-07T00:28:45.988Z,93.77
2022-08-07T00:29:38.822Z,93.77
2022-08-07T00:30:37.791Z,93.77
2022-08-07T00:31:42.078Z,93.67
2022-08-07T00:32:37.762Z,93.77
2022-08-07T00:33:37.759Z,93.77
2022-08-07T00:34:37.747Z,93.77
2022-08-07T00:35:37.716Z,93.98
2022-08-07T00:36:38.621Z,94.23
2022-08-07T00:37:47.772Z,94.23
2022-08-07T00:38:38.975Z,94.12
2022-08-07T00:39:37.718Z,94.02
2022-08-07T00:40:40.343Z,93.92
2022-08-07T00:41:53.039Z,93.82
2022-08-07T00:42:38.640Z,93.92
2022-08-07T00:44:01.080Z,93.92
2022-08-07T00:44:41.403Z,93.92
2022-08-07T00:45:37.590Z,94.23
2022-08-07T00:46:37.578Z,94.33
2022-08-07T00:48:09.666Z,94.64
2022-08-07T00:48:42.002Z,94.84
2022-08-07T00:50:19.216Z,94.95
2022-08-07T00:50:50.538Z,94.95
2022-08-07T00:51:58.210Z,94.64
2022-08-07T00:52:38.497Z,94.54
2022-08-07T00:53:38.845Z,94.64
2022-08-07T00:54:40.607Z,94.74
2022-08-07T00:56:02.139Z,94.64
2022-08-07T00:56:38.463Z,94.99
2022-08-07T00:57:37.420Z,95.29
2022-08-07T00:58:37.411Z,95.61
2022-08-07T00:59:37.415Z,95.70
2022-08-07T01:00:37.390Z,95.91
2022-08-07T01:01:44.239Z,96.01
2022-08-07T01:02:38.377Z,95.91
2022-08-07T01:03:55.333Z,95.50
2022-08-07T01:04:43.101Z,95.20
2022-08-07T01:05:38.313Z,95.29
2022-08-07T01:06:37.311Z,95.40
2022-08-07T01:07:37.298Z,95.20
2022-08-07T01:08:37.295Z,94.99
2022-08-07T01:10:04.609Z,94.78
2022-08-07T01:10:38.252Z,94.58
2022-08-07T01:12:27.909Z,94.78
2022-08-07T01:12:38.657Z,94.89
2022-08-07T01:13:37.219Z,95.20
2022-08-07T01:14:37.333Z,95.61
2022-08-07T01:16:05.402Z,95.70
2022-08-07T01:16:38.180Z,95.81
2022-08-07T01:17:37.154Z,96.06
2022-08-07T01:18:37.144Z,95.95
2022-08-07T01:19:38.521Z,95.75
2022-08-07T01:20:43.218Z,95.65
2022-08-07T01:21:38.110Z,95.79
2022-08-07T01:22:37.111Z,96.20
2022-08-07T01:23:39.354Z,96.92
2022-08-07T01:24:37.059Z,97.33
2022-08-07T01:25:54.398Z,97.74
2022-08-07T01:26:38.052Z,98.05
2022-08-07T01:27:37.452Z,98.36
2022-08-07T01:28:38.021Z,98.77
2022-08-07T01:29:36.990Z,99.38
2022-08-07T01:30:36.977Z,99.69
2022-08-07T01:31:41.634Z,99.79
2022-08-07T01:32:37.951Z,99.90
2022-08-07T01:33:56.282Z,99.79
2022-08-07T01:34:37.945Z,99.79
2022-08-07T01:35:53.473Z,99.59
2022-08-07T01:36:40.676Z,99.49
2022-08-07T01:37:36.881Z,99.38
2022-08-07T01:38:36.868Z,99.08
2022-08-07T01:39:40.768Z,98.87
2022-08-07T01:40:37.844Z,98.57
2022-08-07T01:41:36.837Z,98.16
2022-08-07T01:42:57.669Z,97.74
2022-08-07T01:43:38.272Z,97.28
2022-08-07T01:44:36.797Z,96.87
2022-08-07T01:45:39.940Z,97.99
2022-08-07T01:46:36.754Z,98.55
2022-08-07T01:48:18.169Z,98.55
2022-08-07T01:48:41.081Z,98.50
2022-08-07T01:49:36.726Z,99.01
2022-08-07T01:50:36.718Z,99.42
2022-08-07T01:52:04.004Z,99.99
2022-08-07T01:52:37.807Z,99.99
2022-08-07T01:54:08.987Z,99.99
2022-08-07T01:54:37.798Z,99.99
2022-08-07T01:55:36.640Z,99.99
2022-08-07T01:56:36.640Z,99.99
2022-08-07T01:58:06.546Z,99.99
2022-08-07T01:58:41.096Z,99.99
2022-08-07T02:00:49.273Z,99.99
2022-08-07T02:02:02.613Z,99.99
2022-08-07T02:03:18.206Z,99.99
2022-08-07T02:03:51.040Z,99.99
2022-08-07T02:04:55.705Z,99.99
2022-08-07T02:06:01.027Z,99.99
2022-08-07T02:08:03.754Z,99.99
2022-08-07T02:09:00.536Z,99.99
2022-08-07T02:10:00.564Z,99.48
2022-08-07T02:11:00.456Z,98.96
2022-08-07T02:12:04.869Z,98.86
2022-08-07T02:13:00.447Z,98.55
2022-08-07T02:14:02.456Z,98.25
2022-08-07T02:15:00.679Z,97.83
2022-08-07T02:16:00.402Z,97.53
2022-08-07T02:17:00.378Z,97.12
2022-08-07T02:18:00.357Z,96.81
2022-08-07T02:19:00.362Z,96.60
2022-08-07T02:20:07.382Z,96.30
2022-08-07T02:21:01.341Z,96.19
2022-08-07T02:22:01.320Z,95.89
2022-08-07T02:23:00.289Z,95.68
2022-08-07T02:24:00.293Z,95.47
2022-08-07T02:25:00.268Z,95.27
2022-08-07T02:26:31.791Z,95.17
2022-08-07T02:27:02.437Z,95.17
2022-08-07T02:28:00.235Z,95.27
2022-08-07T02:29:00.217Z,95.17
2022-08-07T02:30:00.205Z,95.06
2022-08-07T02:31:00.204Z,95.17
2022-08-07T02:32:01.164Z,95.06
2022-08-07T02:33:09.172Z,94.96
2022-08-07T02:34:03.038Z,95.06
2022-08-07T02:35:00.994Z,95.06
2022-08-07T02:36:26.863Z,95.06
2022-08-07T02:37:01.101Z,95.17
2022-08-07T02:38:00.094Z,95.17
2022-08-07T02:39:00.197Z,95.17
2022-08-07T02:40:11.698Z,95.06
2022-08-07T02:41:01.148Z,94.96
2022-08-07T02:42:00.038Z,94.76
2022-08-07T02:43:00.023Z,94.65
2022-08-07T02:43:59.995Z,94.65
2022-08-07T02:45:00.011Z,94.76
2022-08-07T02:46:02.485Z,94.96
2022-08-07T02:46:59.967Z,95.17
2022-08-07T02:48:01.608Z,95.01
2022-08-07T02:48:59.935Z,95.10
2022-08-07T02:50:00.526Z,95.52
2022-08-07T02:50:59.921Z,95.89
2022-08-07T02:51:59.897Z,96.40
2022-08-07T02:53:03.442Z,96.65
2022-08-07T02:54:00.883Z,96.75
2022-08-07T02:54:59.857Z,97.06
2022-08-07T02:56:04.340Z,97.52
2022-08-07T02:57:00.827Z,97.82
2022-08-07T02:57:59.949Z,98.03
2022-08-07T02:58:59.820Z,98.13
2022-08-07T03:00:01.148Z,98.44
2022-08-07T03:01:00.827Z,98.75
2022-08-07T03:02:01.157Z,98.96
2022-08-07T03:02:59.749Z,99.05
2022-08-07T03:04:03.237Z,99.05
2022-08-07T03:05:00.720Z,98.96
2022-08-07T03:05:59.701Z,98.96
2022-08-07T03:06:59.713Z,98.85
2022-08-07T03:08:06.800Z,98.54
2022-08-07T03:09:00.689Z,98.33
2022-08-07T03:09:59.664Z,98.13
2022-08-07T03:10:59.633Z,97.92
2022-08-07T03:12:02.574Z,97.72
2022-08-07T03:12:59.610Z,97.41
2022-08-07T03:14:01.870Z,97.20
2022-08-07T03:15:02.388Z,96.80
2022-08-07T03:16:00.578Z,96.48
2022-08-07T03:16:59.553Z,96.48
2022-08-07T03:17:59.543Z,96.39
2022-08-07T03:18:59.549Z,96.48
2022-08-07T03:19:59.514Z,96.48
2022-08-07T03:20:59.518Z,96.59
2022-08-07T03:21:59.499Z,96.69
2022-08-07T03:22:59.476Z,96.90
2022-08-07T03:24:20.967Z,96.90
2022-08-07T03:25:00.501Z,97.20
2022-08-07T03:25:59.867Z,97.62
2022-08-07T03:26:59.678Z,97.77
2022-08-07T03:28:09.681Z,97.97
2022-08-07T03:29:00.409Z,98.18
2022-08-07T03:29:59.390Z,98.59
2022-08-07T03:30:59.366Z,98.79
2022-08-07T03:31:59.347Z,98.90
2022-08-07T03:33:01.013Z,99.21
2022-08-07T03:33:59.442Z,99.62
2022-08-07T03:35:00.916Z,99.99
2022-08-07T03:36:00.322Z,99.99
2022-08-07T03:36:59.280Z,99.99
2022-08-07T03:37:59.270Z,99.99
2022-08-07T03:38:59.305Z,99.99
2022-08-07T03:40:15.986Z,99.99
2022-08-07T03:41:00.296Z,99.99
2022-08-07T03:41:59.224Z,99.99
2022-08-07T03:42:59.200Z,99.99
2022-08-07T03:43:59.203Z,99.87
2022-08-07T03:44:59.178Z,99.66
2022-08-07T03:45:59.163Z,99.46
2022-08-07T03:47:13.286Z,99.25
2022-08-07T03:48:00.162Z,99.05
2022-08-07T03:49:02.929Z,98.74
2022-08-07T03:49:59.104Z,98.53
2022-08-07T03:50:59.146Z,98.22
2022-08-07T03:52:01.100Z,98.12
2022-08-07T03:52:59.087Z,98.02
2022-08-07T03:54:33.448Z,97.97
2022-08-07T03:55:06.844Z,97.77
2022-08-07T03:56:03.937Z,97.45
2022-08-07T03:57:03.728Z,97.30
2022-08-07T03:59:05.012Z,97.05
2022-08-07T03:59:09.417Z,96.94
2022-08-07T04:00:02.894Z,96.84
2022-08-07T04:01:00.260Z,96.73
2022-08-07T04:01:59.018Z,96.53
2022-08-07T04:02:58.942Z,96.47
2022-08-07T04:03:58.938Z,96.27
2022-08-07T04:04:59.017Z,96.27
2022-08-07T04:05:59.902Z,96.37
2022-08-07T04:07:00.172Z,96.47
2022-08-07T04:07:58.867Z,96.47
2022-08-07T04:08:58.879Z,96.68
2022-08-07T04:09:58.851Z,96.99
2022-08-07T04:10:58.828Z,96.99
2022-08-07T04:12:24.184Z,97.09
2022-08-07T04:12:59.809Z,97.09
2022-08-07T04:14:10.607Z,97.09
2022-08-07T04:15:00.220Z,97.19
2022-08-07T04:15:58.760Z,97.30
2022-08-07T04:16:59.057Z,97.40
2022-08-07T04:18:31.003Z,97.40
2022-08-07T04:19:01.650Z,97.61
2022-08-07T04:19:58.710Z,97.71
2022-08-07T04:20:58.714Z,97.66
2022-08-07T04:21:59.579Z,97.66
2022-08-07T04:23:01.463Z,97.97
2022-08-07T04:24:06.059Z,98.07
2022-08-07T04:25:01.352Z,98.18
2022-08-07T04:25:58.632Z,98.18
2022-08-07T04:26:59.636Z,98.28
2022-08-07T04:27:59.447Z,98.38
2022-08-07T04:28:58.694Z,98.38
2022-08-07T04:30:02.797Z,98.28
2022-08-07T04:30:59.590Z,98.07
2022-08-07T04:32:02.984Z,97.97
2022-08-07T04:32:59.656Z,97.97
2022-08-07T04:33:58.524Z,97.87
2022-08-07T04:34:58.528Z,97.87
2022-08-07T04:35:58.510Z,97.77
2022-08-07T04:36:58.487Z,97.77
2022-08-07T04:38:03.668Z,97.87
2022-08-07T04:38:59.516Z,98.07
2022-08-07T04:39:58.483Z,98.18
2022-08-07T04:40:58.449Z,98.49
2022-08-07T04:41:58.430Z,98.69
2022-08-07T04:43:03.224Z,98.90
2022-08-07T04:44:12.056Z,99.10
2022-08-07T04:45:03.250Z,99.31
2022-08-07T04:46:02.088Z,99.57
2022-08-07T04:47:03.974Z,99.67
2022-08-07T04:48:05.981Z,99.67
2022-08-07T04:48:59.452Z,99.77
2022-08-07T04:50:03.865Z,99.88
2022-08-07T04:50:59.300Z,99.98
2022-08-07T04:51:58.279Z,99.99
2022-08-07T04:52:58.865Z,99.99
2022-08-07T04:54:05.608Z,99.99
2022-08-07T04:54:59.380Z,99.99
2022-08-07T04:58:09.599Z,99.99
2022-08-07T04:58:11.258Z,99.88
2022-08-07T04:58:15.845Z,99.98
2022-08-07T05:00:12.833Z,99.99
2022-08-07T05:00:59.267Z,99.99
2022-08-07T05:01:58.180Z,99.99
2022-08-07T05:02:58.139Z,99.99
2022-08-07T05:04:07.112Z,99.99
2022-08-07T05:04:59.113Z,99.99
2022-08-07T05:05:58.093Z,99.99
2022-08-07T05:06:58.136Z,99.99
2022-08-07T05:07:58.064Z,99.99
2022-08-07T05:09:00.778Z,99.89
2022-08-07T05:09:58.056Z,99.68
2022-08-07T05:10:58.532Z,99.68
2022-08-07T05:12:02.322Z,99.79
2022-08-07T05:13:09.879Z,99.79
2022-08-07T05:14:52.439Z,99.74
2022-08-07T05:15:03.532Z,99.74
2022-08-07T05:15:58.957Z,99.63
2022-08-07T05:16:57.968Z,99.54
2022-08-07T05:17:58.226Z,99.49
2022-08-07T05:18:57.924Z,99.38
2022-08-07T05:19:57.918Z,99.38
2022-08-07T05:20:57.934Z,99.49
2022-08-07T05:22:00.691Z,99.44
2022-08-07T05:22:57.952Z,99.44
2022-08-07T05:23:57.871Z,99.34
2022-08-07T05:24:59.630Z,99.29
2022-08-07T05:26:13.787Z,99.19
2022-08-07T05:26:58.831Z,99.29
2022-08-07T05:28:02.872Z,99.29
2022-08-07T05:28:58.802Z,99.15
2022-08-07T05:29:57.782Z,99.04
2022-08-07T05:30:57.793Z,99.04
2022-08-07T05:31:57.753Z,98.94
2022-08-07T05:32:57.730Z,98.90
2022-08-07T05:34:01.020Z,98.90
2022-08-07T05:36:12.188Z,98.85
2022-08-07T05:37:09.690Z,98.95
2022-08-07T05:38:09.950Z,98.95
2022-08-07T05:40:14.033Z,98.90
2022-08-07T05:40:17.819Z,98.80
2022-08-07T05:41:14.219Z,98.80
2022-08-07T05:42:12.416Z,98.55
2022-08-07T05:43:10.519Z,98.35
2022-08-07T05:44:12.752Z,98.14
2022-08-07T05:45:25.751Z,97.89
2022-08-07T05:46:10.562Z,97.69
2022-08-07T05:47:18.041Z,97.69
2022-08-07T05:48:10.842Z,97.49
2022-08-07T05:49:12.562Z,97.24
2022-08-07T05:50:09.554Z,96.51
2022-08-07T05:51:09.504Z,96.21
2022-08-07T05:52:11.721Z,95.96
2022-08-07T05:54:08.454Z,95.65
2022-08-07T05:54:29.301Z,95.56
2022-08-07T05:55:11.235Z,95.41
2022-08-07T05:56:09.447Z,95.41
2022-08-07T05:57:09.416Z,95.31
2022-08-07T05:58:09.411Z,95.06
2022-08-07T05:59:09.409Z,94.95
2022-08-07T06:00:09.375Z,94.85
2022-08-07T06:01:10.817Z,94.81
2022-08-07T06:02:09.431Z,94.71
2022-08-07T06:03:09.347Z,94.40
2022-08-07T06:04:09.338Z,94.35
2022-08-07T06:05:10.803Z,94.26
2022-08-07T06:06:09.552Z,94.11
2022-08-07T06:07:09.301Z,93.90
2022-08-07T06:08:30.258Z,92.99
2022-08-07T06:09:10.258Z,92.99
2022-08-07T06:10:15.135Z,92.94
2022-08-07T06:11:10.265Z,92.94
2022-08-07T06:12:09.288Z,92.44
2022-08-07T06:13:13.353Z,92.29
2022-08-07T06:14:11.522Z,92.40
2022-08-07T06:15:09.179Z,92.29
2022-08-07T06:16:10.354Z,92.04
2022-08-07T06:17:09.179Z,91.53
2022-08-07T06:18:09.201Z,90.31
2022-08-07T06:19:09.154Z,89.50
2022-08-07T06:20:12.428Z,89.66
2022-08-07T06:22:15.241Z,90.23
2022-08-07T06:22:15.415Z,89.66
2022-08-07T06:23:46.706Z,90.13
2022-08-07T06:24:45.540Z,89.28
2022-08-07T06:25:10.410Z,88.87
2022-08-07T06:26:09.024Z,88.82
2022-08-07T06:27:09.027Z,89.03
2022-08-07T06:28:09.004Z,88.89
2022-08-07T06:29:10.028Z,89.80
2022-08-07T06:30:08.979Z,88.64
2022-08-07T06:31:09.956Z,87.59
2022-08-07T06:32:08.960Z,86.57
2022-08-07T06:33:09.993Z,86.02
2022-08-07T06:34:09.917Z,86.63
2022-08-07T06:35:17.646Z,87.10
2022-08-07T06:36:13.121Z,85.78
2022-08-07T06:37:08.890Z,84.02
2022-08-07T06:38:10.130Z,84.28
2022-08-07T06:40:13.135Z,82.87
2022-08-07T06:40:15.952Z,80.13
2022-08-07T06:41:12.995Z,80.84
2022-08-07T06:42:09.123Z,80.10
2022-08-07T06:43:21.066Z,80.30
2022-08-07T06:44:10.830Z,79.35
2022-08-07T06:45:11.234Z,78.24
2022-08-07T06:46:11.642Z,77.73
2022-08-07T06:47:12.387Z,78.50
2022-08-07T06:48:11.352Z,76.89
2022-08-07T06:49:08.733Z,77.56
2022-08-07T06:50:08.717Z,76.82
2022-08-07T06:51:08.753Z,75.71
2022-08-07T06:52:10.217Z,75.37
2022-08-07T06:54:11.527Z,75.57
2022-08-07T06:55:29.645Z,74.32
2022-08-07T06:55:32.195Z,74.43
2022-08-07T06:56:15.004Z,74.29
2022-08-07T06:57:09.633Z,72.38
2022-08-07T06:58:10.235Z,72.07
2022-08-07T07:00:11.393Z,71.23
2022-08-07T07:00:14.210Z,72.04
2022-08-07T07:01:09.592Z,72.14
2022-08-07T07:02:08.636Z,72.41
2022-08-07T07:03:13.972Z,71.00
2022-08-07T07:04:28.329Z,71.47
2022-08-07T07:05:09.499Z,70.96
2022-08-07T07:06:11.263Z,68.51
2022-08-07T07:07:18.899Z,68.91
2022-08-07T07:08:10.113Z,68.11
2022-08-07T07:09:08.471Z,68.21
2022-08-07T07:10:08.443Z,68.88
2022-08-07T07:11:14.467Z,69.18
2022-08-07T07:12:15.643Z,67.88
2022-08-07T07:13:10.009Z,68.15
2022-08-07T07:14:09.811Z,67.44
2022-08-07T07:15:09.040Z,66.44
2022-08-07T07:16:09.355Z,66.20
2022-08-07T07:17:08.331Z,65.70
2022-08-07T07:18:09.310Z,65.47
2022-08-07T07:19:16.198Z,65.07
2022-08-07T07:20:09.282Z,64.87
2022-08-07T07:21:13.477Z,65.44
2022-08-07T07:22:33.862Z,64.34
2022-08-07T07:24:08.992Z,63.73
2022-08-07T07:24:12.576Z,63.43
2022-08-07T07:26:30.877Z,63.60
2022-08-07T07:26:34.582Z,62.50
2022-08-07T07:27:09.207Z,62.20
2022-08-07T07:28:42.019Z,62.57
2022-08-07T07:29:56.147Z,63.28
2022-08-07T07:30:11.948Z,62.17
2022-08-07T07:31:08.160Z,60.86
2022-08-07T07:32:08.134Z,63.34
2022-08-07T07:33:08.129Z,61.71
2022-08-07T07:34:08.120Z,60.51
2022-08-07T07:35:08.088Z,59.81
2022-08-07T07:36:13.413Z,59.81
2022-08-07T07:37:21.820Z,60.48
2022-08-07T07:38:09.048Z,59.88
2022-08-07T07:39:08.111Z,58.78
2022-08-07T07:40:14.935Z,58.58
2022-08-07T07:41:09.244Z,58.55
2022-08-07T07:42:13.320Z,58.22
2022-08-07T07:43:15.367Z,57.62
2022-08-07T07:44:17.223Z,56.39
2022-08-07T07:45:08.983Z,56.29
2022-08-07T07:46:36.533Z,56.87
2022-08-07T07:47:15.910Z,56.54
2022-08-07T07:48:08.925Z,55.44
2022-08-07T07:49:09.127Z,54.02
2022-08-07T07:50:34.881Z,52.49
2022-08-07T07:51:08.883Z,51.20
2022-08-07T07:52:07.854Z,51.87
2022-08-07T07:53:20.689Z,54.27
2022-08-07T07:54:08.847Z,51.97
2022-08-07T07:55:07.814Z,52.44
2022-08-07T07:56:07.818Z,52.64
2022-08-07T07:57:07.785Z,52.81
2022-08-07T07:58:07.776Z,52.72
2022-08-07T07:59:07.775Z,53.41
2022-08-07T08:00:09.199Z,52.62
2022-08-07T08:02:01.811Z,51.50
2022-08-07T08:02:10.583Z,50.57
2022-08-07T08:03:08.101Z,50.78
2022-08-07T08:04:10.280Z,50.98
2022-08-07T08:05:14.179Z,49.58
2022-08-07T08:06:13.060Z,50.25
2022-08-07T08:07:07.813Z,50.75
2022-08-07T08:08:07.662Z,50.45
2022-08-07T08:09:09.747Z,50.68
2022-08-07T08:10:07.619Z,49.88
2022-08-07T08:11:08.531Z,49.98
2022-08-07T08:12:07.591Z,49.68
2022-08-07T08:13:10.383Z,49.58
2022-08-07T08:14:08.577Z,49.21
2022-08-07T08:15:07.553Z,50.85
2022-08-07T08:16:07.535Z,50.35
2022-08-07T08:17:56.230Z,51.05
2022-08-07T08:18:17.579Z,50.62
2022-08-07T08:19:17.332Z,51.84
2022-08-07T08:20:19.142Z,54.92
2022-08-07T08:21:08.461Z,54.92
2022-08-07T08:22:07.831Z,55.22
2022-08-07T08:23:08.505Z,53.30
2022-08-07T08:24:07.426Z,53.47
2022-08-07T08:25:24.782Z,52.44
2022-08-07T08:26:08.421Z,51.42
2022-08-07T08:27:09.575Z,51.34
2022-08-07T08:28:07.382Z,52.09
2022-08-07T08:29:08.256Z,52.17
2022-08-07T08:30:07.341Z,50.10
2022-08-07T08:31:07.344Z,49.28
2022-08-07T08:32:18.288Z,49.04
2022-08-07T08:33:15.105Z,47.32
2022-08-07T08:34:08.371Z,47.87
2022-08-07T08:35:07.609Z,46.46
2022-08-07T08:36:07.287Z,45.82
2022-08-07T08:37:09.795Z,45.40
2022-08-07T08:38:08.529Z,43.79
2022-08-07T08:39:07.257Z,43.10
2022-08-07T08:40:07.250Z,44.86
2022-08-07T08:41:08.248Z,44.59
2022-08-07T08:42:07.198Z,43.40
2022-08-07T08:43:07.200Z,43.89
2022-08-07T08:44:07.277Z,43.97
2022-08-07T08:45:13.047Z,44.39
2022-08-07T08:46:08.125Z,43.77
2022-08-07T08:47:09.779Z,42.49
2022-08-07T08:48:07.112Z,42.09
2022-08-07T08:49:07.117Z,42.09
2022-08-07T08:50:07.183Z,40.68
2022-08-07T08:51:14.651Z,41.87
2022-08-07T08:52:14.420Z,41.25
2022-08-07T08:53:08.042Z,40.68
2022-08-07T08:54:07.041Z,41.87
2022-08-07T08:55:07.619Z,44.49
2022-08-07T08:56:07.147Z,44.22
2022-08-07T08:57:06.977Z,43.80
2022-08-07T08:58:06.971Z,44.79
2022-08-07T08:59:13.522Z,45.67
2022-08-07T09:00:07.940Z,46.66
2022-08-07T09:01:15.249Z,47.40
2022-08-07T09:02:09.056Z,45.93
2022-08-07T09:03:07.660Z,43.84
2022-08-07T09:04:06.886Z,45.43
2022-08-07T09:05:06.885Z,47.34
2022-08-07T09:06:06.874Z,48.26
2022-08-07T09:07:06.904Z,45.78
2022-08-07T09:08:06.848Z,46.25
2022-08-07T09:09:09.680Z,45.93
2022-08-07T09:10:07.825Z,44.92
2022-08-07T09:11:06.840Z,42.88
2022-08-07T09:12:20.265Z,43.93
2022-08-07T09:13:07.850Z,43.42
2022-08-07T09:14:06.769Z,42.11
2022-08-07T09:16:22.033Z,42.17
2022-08-07T09:16:25.528Z,41.89
2022-08-07T09:17:07.711Z,42.71
2022-08-07T09:18:08.753Z,43.08
2022-08-07T09:19:50.786Z,43.74
2022-08-07T09:20:24.969Z,44.49
2022-08-07T09:21:13.632Z,44.77
2022-08-07T09:22:22.656Z,45.34
2022-08-07T09:24:29.266Z,44.97
2022-08-07T09:24:33.139Z,45.17
2022-08-07T09:25:14.516Z,45.34
2022-08-07T09:26:07.614Z,44.21
2022-08-07T09:27:11.954Z,42.49
2022-08-07T09:30:02.337Z,40.84
2022-08-07T09:30:04.214Z,40.21
2022-08-07T09:30:08.992Z,40.62
2022-08-07T09:31:06.542Z,40.84
2022-08-07T09:32:18.610Z,39.83
2022-08-07T09:33:24.470Z,39.83
2022-08-07T09:34:07.499Z,40.11
2022-08-07T09:36:02.891Z,38.84
2022-08-07T09:36:07.793Z,38.75
2022-08-07T09:37:06.446Z,39.87
2022-08-07T09:38:06.446Z,40.66
2022-08-07T09:39:11.329Z,39.87
2022-08-07T09:40:07.599Z,39.56
2022-08-07T09:41:06.393Z,39.12
2022-08-07T09:42:07.864Z,37.51
2022-08-07T09:43:08.397Z,37.19
2022-08-07T09:44:10.324Z,37.76
2022-08-07T09:47:25.741Z,37.17
2022-08-07T09:47:51.624Z,36.58
2022-08-07T09:47:52.543Z,37.85
2022-08-07T09:48:12.012Z,36.58
2022-08-07T09:50:01.197Z,36.30
2022-08-07T09:50:19.218Z,37.57
2022-08-07T09:51:14.751Z,36.29
2022-08-07T09:52:15.508Z,36.29
2022-08-07T09:53:07.249Z,36.78
2022-08-07T09:54:06.269Z,36.74
2022-08-07T09:55:06.205Z,35.76
2022-08-07T09:56:07.381Z,35.36
2022-08-07T09:57:06.285Z,35.27
2022-08-07T09:58:07.165Z,36.42
2022-08-07T09:59:07.847Z,38.06
2022-08-07T10:00:07.135Z,37.85
2022-08-07T10:01:08.322Z,37.76
2022-08-07T10:02:07.218Z,38.47
2022-08-07T10:03:08.166Z,38.27
2022-08-07T10:04:14.874Z,39.34
2022-08-07T10:05:12.464Z,38.71
2022-08-07T10:06:12.243Z,36.91
2022-08-07T10:07:24.177Z,38.41
2022-08-07T10:08:07.074Z,38.27
2022-08-07T10:09:06.030Z,38.07
2022-08-07T10:10:06.023Z,39.50
2022-08-07T10:11:59.494Z,39.79
2022-08-07T10:12:13.294Z,41.36
2022-08-07T10:13:15.944Z,40.42
2022-08-07T10:14:07.117Z,41.75
2022-08-07T10:15:06.263Z,43.96
2022-08-07T10:16:05.928Z,42.43
2022-08-07T10:17:14.264Z,41.89
2022-08-07T10:18:06.903Z,39.95
2022-08-07T10:19:11.423Z,37.95
2022-08-07T10:20:06.895Z,38.59
2022-08-07T10:21:08.672Z,36.97
2022-08-07T10:22:14.676Z,36.29
2022-08-07T10:23:07.539Z,37.08
2022-08-07T10:24:08.556Z,40.19
2022-08-07T10:25:05.803Z,38.68
2022-08-07T10:26:05.938Z,39.75
2022-08-07T10:27:06.743Z,38.40
2022-08-07T10:28:05.772Z,36.69
2022-08-07T10:29:05.731Z,37.08
2022-08-07T10:30:06.419Z,36.04
2022-08-07T10:31:06.079Z,36.61
2022-08-07T10:32:06.730Z,35.93
2022-08-07T10:33:06.697Z,35.24
2022-08-07T10:34:15.257Z,35.91
2022-08-07T10:35:09.104Z,34.51
2022-08-07T10:36:11.318Z,35.53
2022-08-07T10:37:12.447Z,36.27
2022-08-07T10:38:21.120Z,36.10
2022-08-07T10:39:06.628Z,35.66
2022-08-07T10:40:09.092Z,34.38
2022-08-07T10:41:05.590Z,34.59
2022-08-07T10:42:09.897Z,35.58
2022-08-07T10:43:06.546Z,35.50
2022-08-07T10:44:07.343Z,35.78
2022-08-07T10:45:05.774Z,35.28
2022-08-07T10:46:05.516Z,34.99
2022-08-07T10:47:05.781Z,35.60
2022-08-07T10:48:07.349Z,37.30
2022-08-07T10:49:05.482Z,38.44
2022-08-07T10:50:05.582Z,39.69
2022-08-07T10:51:05.438Z,39.99
2022-08-07T10:52:13.165Z,41.30
2022-08-07T10:53:08.009Z,39.81
2022-08-07T10:54:05.409Z,38.59
2022-08-07T10:55:21.001Z,37.22
2022-08-07T10:56:06.424Z,36.61
2022-08-07T10:57:05.363Z,37.28
2022-08-07T10:58:05.352Z,38.59
2022-08-07T10:59:05.346Z,41.28
2022-08-07T11:00:05.322Z,36.44
2022-08-07T11:01:05.460Z,36.59
2022-08-07T11:02:27.351Z,36.25
2022-08-07T11:03:11.286Z,36.12
2022-08-07T11:04:16.474Z,35.73
2022-08-07T11:05:10.559Z,35.69
2022-08-07T11:06:05.244Z,33.48
2022-08-07T11:07:05.277Z,31.26
2022-08-07T11:08:06.467Z,30.84
2022-08-07T11:09:11.554Z,32.32
2022-08-07T11:10:09.158Z,35.22
2022-08-07T11:11:05.176Z,37.79
2022-08-07T11:12:05.396Z,37.69
2022-08-07T11:13:05.202Z,35.77
2022-08-07T11:14:57.045Z,36.90
2022-08-07T11:15:14.706Z,35.76
2022-08-07T11:16:07.124Z,34.92
2022-08-07T11:17:07.353Z,33.39
2022-08-07T11:18:05.089Z,33.48
2022-08-07T11:19:05.193Z,31.90
2022-08-07T11:20:05.060Z,31.67
2022-08-07T11:21:05.056Z,30.36
2022-08-07T11:22:05.046Z,30.45
2022-08-07T11:23:05.019Z,30.35
2022-08-07T11:24:05.026Z,30.82
2022-08-07T11:25:06.569Z,30.42
2022-08-07T11:26:06.407Z,30.81
2022-08-07T11:27:04.979Z,31.20
2022-08-07T11:28:05.198Z,30.90
2022-08-07T11:29:05.646Z,30.60
2022-08-07T11:30:17.650Z,30.19
2022-08-07T11:31:08.760Z,31.46
2022-08-07T11:32:05.906Z,33.84
2022-08-07T11:33:07.906Z,36.12
2022-08-07T11:34:05.891Z,38.23
2022-08-07T11:35:04.857Z,36.04
2022-08-07T11:36:09.927Z,36.25
2022-08-07T11:37:06.726Z,37.82
2022-08-07T11:38:12.644Z,36.22
2022-08-07T11:39:07.051Z,35.99
2022-08-07T11:40:04.864Z,35.66
2022-08-07T11:41:04.795Z,36.36
2022-08-07T11:42:04.816Z,37.02
2022-08-07T11:43:04.751Z,39.89
2022-08-07T11:44:12.809Z,39.18
2022-08-07T11:45:05.733Z,36.88
2022-08-07T11:46:04.712Z,37.15
2022-08-07T11:47:04.716Z,36.25
2022-08-07T11:48:13.778Z,35.12
2022-08-07T11:49:50.090Z,33.91
2022-08-07T11:50:31.930Z,33.39
2022-08-07T11:51:09.052Z,33.46
2022-08-07T11:52:04.640Z,32.65
2022-08-07T11:53:04.975Z,32.05
2022-08-07T11:54:09.778Z,32.31
2022-08-07T11:55:09.034Z,31.71
2022-08-07T11:56:13.969Z,31.41
2022-08-07T11:57:05.581Z,31.32
2022-08-07T11:58:05.570Z,31.29
2022-08-07T12:00:07.610Z,31.57
2022-08-07T12:00:11.139Z,30.47
2022-08-07T12:01:06.834Z,30.57
2022-08-07T12:02:04.578Z,30.14
2022-08-07T12:03:05.490Z,30.84
2022-08-07T12:04:04.485Z,31.40
2022-08-07T12:05:04.571Z,30.70
2022-08-07T12:06:37.483Z,30.71
2022-08-07T12:07:09.083Z,31.84
2022-08-07T12:08:05.426Z,33.49
2022-08-07T12:09:04.427Z,35.60
2022-08-07T12:10:05.679Z,35.44
2022-08-07T12:11:20.037Z,34.15
2022-08-07T12:12:09.450Z,34.03
2022-08-07T12:13:11.542Z,33.43
2022-08-07T12:14:05.352Z,33.84
2022-08-07T12:15:04.355Z,32.76
2022-08-07T12:16:06.718Z,30.85
2022-08-07T12:17:05.417Z,33.82
2022-08-07T12:18:11.131Z,33.64
2022-08-07T12:19:05.300Z,32.77
2022-08-07T12:20:08.829Z,33.13
2022-08-07T12:21:05.272Z,35.22
2022-08-07T12:22:38.845Z,35.25
2022-08-07T12:26:00.328Z,35.10
2022-08-07T12:26:03.448Z,36.11
2022-08-07T12:26:29.742Z,36.73
2022-08-07T12:28:05.843Z,35.31
2022-08-07T12:28:30.996Z,34.79
2022-08-07T12:29:38.447Z,34.01
2022-08-07T12:30:23.536Z,33.26
2022-08-07T12:31:22.503Z,33.04
2022-08-07T12:32:21.173Z,36.11
2022-08-07T12:33:23.089Z,34.49
2022-08-07T12:34:22.799Z,34.43
2022-08-07T12:35:21.029Z,34.25
2022-08-07T12:36:32.979Z,34.56
2022-08-07T12:37:23.513Z,34.64
2022-08-07T12:38:37.017Z,33.54
2022-08-07T12:39:42.948Z,33.36
2022-08-07T12:40:46.443Z,33.34
2022-08-07T12:41:22.038Z,32.20
2022-08-07T12:42:27.136Z,31.46
2022-08-07T12:43:58.790Z,29.16
2022-08-07T12:44:21.902Z,28.93
2022-08-07T12:45:20.905Z,28.91
2022-08-07T12:46:26.624Z,28.30
2022-08-07T12:47:30.393Z,27.59
2022-08-07T12:48:27.651Z,28.58
2022-08-07T12:49:25.770Z,28.68
2022-08-07T12:50:39.315Z,31.01
2022-08-07T12:51:51.302Z,31.70
2022-08-07T12:52:21.831Z,31.65
2022-08-07T12:53:22.128Z,32.57
2022-08-07T12:54:38.511Z,32.73
2022-08-07T12:55:21.764Z,31.01
2022-08-07T12:56:21.799Z,31.91
2022-08-07T12:57:20.814Z,32.19
2022-08-07T12:59:54.784Z,34.44